Station History


Daily Summary for February 16, 2012 Units:  English    Metric   Both
« Previous Day
Next Day »
Daily Weekly Monthly Yearly Custom
  High: Low: Average:
Temperature: 62.2 °F 37.9 °F 49.4 °F
Dew Point: 42.3 °F 35.5 °F 39.4 °F
Humidity: 94% 44% 71%
Wind Speed: 3.5mph 0.0mph 2.1mph
Wind Gust: 3.5mph - -
Wind- - SW
Pressure: 30.26 in 30.12 in -
Precipitation: 0.00 in    
Historical Graphs
 
 
Tabular Data for February 16, 2012
Time Temperature Dew Point Pressure Wind Wind Speed Wind Gust Humidity Rainfall Rate (Hourly)
00:01 43.7 °F 39.8 °F 30.12 in Calm     86% 0.00 in
00:06 43.5 °F 39.6 °F 30.12 in Calm     86% 0.00 in
00:11 43.3 °F 39.4 °F 30.12 in Calm     86% 0.00 in
00:16 43.1 °F 39.2 °F 30.12 in Calm     86% 0.00 in
00:22 42.8 °F 39.2 °F 30.12 in Calm     87% 0.00 in
00:27 42.7 °F 39.1 °F 30.12 in Calm     87% 0.00 in
00:32 42.6 °F 39.0 °F 30.12 in Calm     87% 0.00 in
00:37 42.3 °F 38.4 °F 30.12 in Calm     86% 0.00 in
00:42 42.0 °F 38.4 °F 30.12 in Calm     87% 0.00 in
00:47 41.8 °F 38.2 °F 30.12 in Calm     87% 0.00 in
00:52 41.8 °F 38.8 °F 30.12 in Calm     89% 0.00 in
00:57 42.2 °F 38.9 °F 30.12 in Calm     88% 0.00 in
01:02 42.2 °F 38.6 °F 30.12 in Calm     87% 0.00 in
01:07 42.0 °F 38.4 °F 30.12 in Calm     87% 0.00 in
01:12 41.7 °F 38.1 °F 30.12 in Calm     87% 0.00 in
01:17 41.3 °F 37.7 °F 30.12 in Calm     87% 0.00 in
01:22 40.9 °F 37.3 °F 30.13 in Calm     87% 0.00 in
01:27 40.6 °F 37.6 °F 30.13 in Calm     89% 0.00 in
01:32 40.4 °F 37.4 °F 30.13 in Calm     89% 0.00 in
01:37 40.2 °F 37.5 °F 30.13 in Calm     90% 0.00 in
01:42 40.0 °F 37.3 °F 30.13 in Calm     90% 0.00 in
01:47 39.9 °F 37.5 °F 30.14 in Calm     91% 0.00 in
01:52 40.0 °F 37.6 °F 30.14 in Calm     91% 0.00 in
01:57 40.0 °F 37.6 °F 30.14 in Calm     91% 0.00 in
02:02 40.0 °F 37.6 °F 30.13 in Calm     91% 0.00 in
02:07 40.0 °F 37.3 °F 30.14 in Calm     90% 0.00 in
02:12 39.9 °F 37.2 °F 30.14 in Calm     90% 0.00 in
02:17 39.8 °F 37.1 °F 30.14 in Calm     90% 0.00 in
02:22 39.7 °F 37.0 °F 30.14 in Calm     90% 0.00 in
02:27 39.6 °F 36.9 °F 30.14 in Calm     90% 0.00 in
02:32 39.6 °F 36.9 °F 30.14 in Calm     90% 0.00 in
02:37 39.5 °F 36.8 °F 30.14 in Calm     90% 0.00 in
02:42 39.3 °F 36.3 °F 30.14 in Calm     89% 0.00 in
02:47 39.0 °F 36.3 °F 30.14 in Calm     90% 0.00 in
02:52 38.8 °F 36.1 °F 30.14 in Calm     90% 0.00 in
02:57 38.6 °F 35.9 °F 30.14 in Calm     90% 0.00 in
03:02 38.4 °F 35.7 °F 30.14 in Calm     90% 0.00 in
03:07 38.2 °F 35.5 °F 30.14 in Calm     90% 0.00 in
03:12 38.2 °F 35.8 °F 30.15 in Calm     91% 0.00 in
03:17 38.1 °F 35.7 °F 30.14 in Calm     91% 0.00 in
03:22 37.9 °F 35.5 °F 30.14 in Calm     91% 0.00 in
08:56 46.8 °F 39.6 °F 30.23 in WNW 1.1 mph 1.1 mph 76% 0.00 in
09:01 47.3 °F 40.5 °F 30.23 in West 2.3 mph 2.3 mph 77% 0.00 in
09:06 47.3 °F 40.5 °F 30.23 in West 3.5 mph 3.5 mph 77% 0.00 in
09:11 47.0 °F 40.5 °F 30.23 in North 2.3 mph 2.3 mph 78% 0.00 in
09:16 46.6 °F 40.1 °F 30.24 in WNW 2.3 mph 2.3 mph 78% 0.00 in
09:22 46.4 °F 39.6 °F 30.24 in ENE 3.5 mph 3.5 mph 77% 0.00 in
09:27 46.3 °F 39.1 °F 30.24 in South 1.1 mph 1.1 mph 76% 0.00 in
09:32 46.5 °F 39.3 °F 30.24 in South 1.1 mph 1.1 mph 76% 0.00 in
09:37 46.7 °F 38.9 °F 30.24 in Calm     74% 0.00 in
09:42 46.7 °F 38.5 °F 30.25 in Calm     73% 0.00 in
09:47 46.9 °F 39.4 °F 30.25 in NNW 2.3 mph 2.3 mph 75% 0.00 in
09:52 47.2 °F 38.6 °F 30.25 in West 1.1 mph   72% 0.00 in
09:57 47.5 °F 39.3 °F 30.25 in WNW 1.1 mph 1.1 mph 73% 0.00 in
10:02 47.9 °F 40.0 °F 30.25 in NNE 1.1 mph 1.1 mph 74% 0.00 in
10:07 48.5 °F 39.9 °F 30.25 in Calm     72% 0.00 in
10:12 48.8 °F 40.2 °F 30.25 in WNW 3.5 mph 3.5 mph 72% 0.00 in
10:17 49.0 °F 40.4 °F 30.26 in NW 1.1 mph   72% 0.00 in
10:22 49.4 °F 40.4 °F 30.26 in West 2.3 mph 2.3 mph 71% 0.00 in
10:27 50.0 °F 41.0 °F 30.26 in NW 3.5 mph 3.5 mph 71% 0.00 in
10:32 50.3 °F 41.3 °F 30.26 in NNW 3.5 mph 3.5 mph 71% 0.00 in
10:37 50.4 °F 41.0 °F 30.26 in SW 1.1 mph 1.1 mph 70% 0.00 in
10:42 50.6 °F 42.3 °F 30.26 in NW 3.5 mph 3.5 mph 73% 0.00 in
10:47 50.9 °F 41.5 °F 30.26 in NNW 1.1 mph 1.1 mph 70% 0.00 in
10:52 51.2 °F 42.1 °F 30.26 in West 1.1 mph 1.1 mph 71% 0.00 in
10:57 51.6 °F 41.4 °F 30.26 in WNW 1.1 mph 1.1 mph 68% 0.00 in
11:02 52.0 °F 41.8 °F 30.26 in South 3.5 mph 3.5 mph 68% 0.00 in
11:07 52.5 °F 41.9 °F 30.26 in NW 3.5 mph 3.5 mph 67% 0.00 in
11:12 53.1 °F 41.6 °F 30.26 in NW 2.3 mph 2.3 mph 65% 0.00 in
11:17 53.3 °F 41.0 °F 30.26 in West 1.1 mph   63% 0.00 in
11:22 53.6 °F 40.9 °F 30.26 in NW 2.3 mph 2.3 mph 62% 0.00 in
11:27 54.0 °F 41.7 °F 30.26 in SSW 2.3 mph 2.3 mph 63% 0.00 in
11:33 54.4 °F 40.8 °F 30.26 in WSW 2.3 mph 2.3 mph 60% 0.00 in
11:38 54.6 °F 41.4 °F 30.26 in WNW 2.3 mph 2.3 mph 61% 0.00 in
11:43 54.7 °F 40.6 °F 30.26 in Calm     59% 0.00 in
11:48 55.2 °F 41.1 °F 30.25 in SW 3.5 mph 3.5 mph 59% 0.00 in
11:53 55.5 °F 41.0 °F 30.25 in North 3.5 mph 3.5 mph 58% 0.00 in
11:58 55.2 °F 41.1 °F 30.25 in North 2.3 mph 2.3 mph 59% 0.00 in
12:03 55.6 °F 40.6 °F 30.24 in WSW 2.3 mph 2.3 mph 57% 0.00 in
12:08 56.0 °F 40.1 °F 30.24 in SE 2.3 mph 2.3 mph 55% 0.00 in
12:13 56.6 °F 40.6 °F 30.24 in West 1.1 mph 1.3 mph 55% 0.00 in
12:18 57.0 °F 41.0 °F 30.24 in SSE 1.0 mph 1.0 mph 55% 0.00 in
12:23 57.3 °F 41.7 °F 30.23 in SW 2.3 mph 2.3 mph 56% 0.00 in
12:28 57.4 °F 41.4 °F 30.23 in West 2.3 mph 2.3 mph 55% 0.00 in
12:33 58.0 °F 40.5 °F 30.23 in West 2.3 mph 2.3 mph 52% 0.00 in
12:38 58.3 °F 41.2 °F 30.23 in WNW 3.5 mph 3.5 mph 53% 0.00 in
12:43 58.8 °F 40.7 °F 30.23 in NNW 3.5 mph 3.5 mph 51% 0.00 in
12:48 58.5 °F 39.9 °F 30.23 in SW 2.3 mph 2.3 mph 50% 0.00 in
12:53 58.6 °F 42.0 °F 30.23 in West 1.1 mph 1.1 mph 54% 0.00 in
12:58 59.2 °F 42.1 °F 30.22 in West 1.1 mph 1.1 mph 53% 0.00 in
13:03 59.5 °F 40.3 °F 30.22 in SW 2.3 mph 2.3 mph 49% 0.00 in
13:08 59.6 °F 40.9 °F 30.22 in West 2.3 mph 2.3 mph 50% 0.00 in
13:13 60.0 °F 41.3 °F 30.21 in SW 3.5 mph 3.5 mph 50% 0.00 in
13:18 59.8 °F 40.6 °F 30.21 in North 2.3 mph 2.3 mph 49% 0.00 in
13:23 59.9 °F 42.2 °F 30.20 in East 1.1 mph   52% 0.00 in
13:28 59.5 °F 39.2 °F 30.20 in East 2.3 mph 2.3 mph 47% 0.00 in
13:33 60.1 °F 40.9 °F 30.20 in SSW 2.3 mph 2.3 mph 49% 0.00 in
13:38 60.6 °F 40.2 °F 30.20 in West 2.3 mph 2.3 mph 47% 0.00 in
13:43 60.7 °F 39.8 °F 30.20 in Calm     46% 0.00 in
13:48 61.2 °F 41.9 °F 30.19 in East 1.1 mph 1.1 mph 49% 0.00 in
13:53 61.6 °F 40.6 °F 30.19 in SSW 3.5 mph 3.5 mph 46% 0.00 in
13:58 61.7 °F 41.3 °F 30.19 in SW 2.3 mph 2.3 mph 47% 0.00 in
14:03 61.9 °F 40.3 °F 30.19 in SE 1.1 mph 1.2 mph 45% 0.00 in
14:08 62.0 °F 40.4 °F 30.19 in Calm     45% 0.00 in
14:13 62.0 °F 39.8 °F 30.19 in WSW 2.3 mph 2.3 mph 44% 0.00 in
14:18 62.1 °F 41.1 °F 30.19 in South 2.3 mph 2.3 mph 46% 0.00 in
14:23 62.1 °F 41.1 °F 30.19 in NNW 2.3 mph 2.3 mph 46% 0.00 in
14:28 61.8 °F 39.6 °F 30.19 in SSE 1.1 mph 1.1 mph 44% 0.00 in
14:33 61.8 °F 40.2 °F 30.19 in North 1.1 mph 1.1 mph 45% 0.00 in
14:38 61.7 °F 40.1 °F 30.19 in NE 2.3 mph 2.3 mph 45% 0.00 in
14:43 61.7 °F 40.1 °F 30.19 in WNW 2.3 mph 2.3 mph 45% 0.00 in
14:48 62.0 °F 40.4 °F 30.19 in West 1.1 mph 1.1 mph 45% 0.00 in
14:53 61.9 °F 40.3 °F 30.19 in SSW 2.3 mph 2.3 mph 45% 0.00 in
14:58 62.1 °F 40.5 °F 30.19 in North 3.5 mph 3.5 mph 45% 0.00 in
15:03 61.8 °F 40.2 °F 30.19 in WNW 2.3 mph 2.3 mph 45% 0.00 in
15:08 62.0 °F 41.0 °F 30.18 in NNE 1.1 mph 1.1 mph 46% 0.00 in
15:13 62.0 °F 40.4 °F 30.18 in West 3.5 mph 3.5 mph 45% 0.00 in
15:18 61.8 °F 40.2 °F 30.18 in West 2.3 mph 2.3 mph 45% 0.00 in
15:23 61.5 °F 40.5 °F 30.18 in WNW 2.3 mph 2.3 mph 46% 0.00 in
15:28 61.4 °F 40.4 °F 30.18 in North 1.0 mph 1.0 mph 46% 0.00 in
15:33 61.8 °F 40.8 °F 30.18 in NNW 1.1 mph 1.1 mph 46% 0.00 in
15:38 61.9 °F 40.3 °F 30.18 in WNW 3.5 mph 3.5 mph 45% 0.00 in
15:43 61.8 °F 40.8 °F 30.18 in NW 1.1 mph 1.1 mph 46% 0.00 in
15:48 61.5 °F 40.5 °F 30.18 in WNW 2.0 mph 2.0 mph 46% 0.00 in
15:53 61.8 °F 40.8 °F 30.18 in NNW 1.1 mph 1.1 mph 46% 0.00 in
15:58 62.2 °F 40.6 °F 30.18 in SSW 1.1 mph 1.1 mph 45% 0.00 in
16:03 61.8 °F 40.8 °F 30.18 in WNW 1.1 mph 1.1 mph 46% 0.00 in
16:08 61.6 °F 40.6 °F 30.18 in North 2.3 mph 2.3 mph 46% 0.00 in
16:13 61.2 °F 40.8 °F 30.19 in WSW 1.1 mph 1.1 mph 47% 0.00 in
16:18 61.4 °F 41.0 °F 30.19 in North 2.3 mph 2.3 mph 47% 0.00 in
16:24 61.1 °F 40.7 °F 30.19 in WNW 2.3 mph 2.3 mph 47% 0.00 in
16:29 60.5 °F 40.7 °F 30.19 in WNW 3.0 mph 3.0 mph 48% 0.00 in
16:34 60.1 °F 40.9 °F 30.20 in West 2.3 mph 2.3 mph 49% 0.00 in
16:39 59.5 °F 40.8 °F 30.20 in NE 2.3 mph 2.3 mph 50% 0.00 in
16:44 58.9 °F 40.3 °F 30.20 in West 1.1 mph 1.1 mph 50% 0.00 in
16:49 58.6 °F 40.5 °F 30.20 in NNW 1.1 mph 1.1 mph 51% 0.00 in
16:54 58.2 °F 40.6 °F 30.20 in NW 1.1 mph 1.1 mph 52% 0.00 in
16:59 57.7 °F 40.7 °F 30.20 in NNE 2.3 mph 2.3 mph 53% 0.00 in
17:04 57.5 °F 40.5 °F 30.20 in Calm     53% 0.00 in
17:09 57.2 °F 40.7 °F 30.21 in WNW 1.1 mph 1.1 mph 54% 0.00 in
17:14 56.9 °F 40.4 °F 30.21 in West 2.3 mph 2.3 mph 54% 0.00 in
17:19 56.6 °F 40.6 °F 30.20 in Calm     55% 0.00 in
17:24 56.3 °F 40.3 °F 30.20 in West 1.1 mph 1.1 mph 55% 0.00 in
17:29 55.9 °F 40.4 °F 30.20 in Calm     56% 0.00 in
17:34 55.6 °F 40.6 °F 30.20 in West 1.1 mph 1.1 mph 57% 0.00 in
17:39 55.3 °F 39.9 °F 30.20 in West 1.1 mph   56% 0.00 in
17:44 55.0 °F 40.0 °F 30.20 in Calm     57% 0.00 in
17:49 54.6 °F 40.1 °F 30.20 in Calm     58% 0.00 in
17:54 54.1 °F 40.1 °F 30.20 in Calm     59% 0.00 in
17:59 53.6 °F 39.6 °F 30.20 in Calm     59% 0.00 in
18:04 52.8 °F 39.7 °F 30.20 in Calm     61% 0.00 in
18:09 52.1 °F 39.9 °F 30.20 in Calm     63% 0.00 in
18:14 51.6 °F 40.2 °F 30.20 in Calm     65% 0.00 in
18:19 51.3 °F 39.9 °F 30.20 in Calm     65% 0.00 in
18:24 50.8 °F 40.2 °F 30.20 in Calm     67% 0.00 in
18:29 50.3 °F 39.8 °F 30.20 in Calm     67% 0.00 in
18:34 49.8 °F 40.0 °F 30.20 in Calm     69% 0.00 in
18:39 49.3 °F 39.9 °F 30.20 in Calm     70% 0.00 in
18:44 48.8 °F 39.4 °F 30.20 in Calm     70% 0.00 in
18:49 48.3 °F 39.3 °F 30.20 in Calm     71% 0.00 in
18:54 47.9 °F 39.3 °F 30.21 in Calm     72% 0.00 in
18:59 47.5 °F 39.3 °F 30.21 in Calm     73% 0.00 in
19:04 47.2 °F 40.0 °F 30.21 in Calm     76% 0.00 in
19:09 47.2 °F 40.0 °F 30.21 in Calm     76% 0.00 in
19:14 47.1 °F 39.9 °F 30.21 in Calm     76% 0.00 in
19:19 46.9 °F 40.1 °F 30.22 in Calm     77% 0.00 in
19:24 46.8 °F 40.0 °F 30.21 in Calm     77% 0.00 in
19:29 46.7 °F 40.2 °F 30.21 in Calm     78% 0.00 in
19:34 46.6 °F 39.8 °F 30.22 in Calm     77% 0.00 in
19:40 46.2 °F 39.4 °F 30.21 in Calm     77% 0.00 in
19:45 45.8 °F 39.0 °F 30.22 in Calm     77% 0.00 in
19:50 45.4 °F 39.6 °F 30.22 in Calm     80% 0.00 in
19:55 45.2 °F 39.7 °F 30.22 in Calm     81% 0.00 in
20:00 45.0 °F 39.5 °F 30.22 in Calm     81% 0.00 in
20:05 44.9 °F 39.7 °F 30.22 in Calm     82% 0.00 in
20:10 44.7 °F 39.5 °F 30.22 in Calm     82% 0.00 in
20:15 44.6 °F 39.8 °F 30.22 in Calm     83% 0.00 in
20:20 44.4 °F 39.2 °F 30.22 in Calm     82% 0.00 in
20:25 44.1 °F 39.3 °F 30.21 in Calm     83% 0.00 in
20:30 44.0 °F 39.5 °F 30.22 in Calm     84% 0.00 in
20:35 44.1 °F 39.6 °F 30.22 in Calm     84% 0.00 in
20:40 44.1 °F 39.6 °F 30.22 in Calm     84% 0.00 in
20:45 43.9 °F 39.1 °F 30.22 in Calm     83% 0.00 in
20:50 43.6 °F 38.8 °F 30.23 in Calm     83% 0.00 in
20:55 43.4 °F 38.9 °F 30.23 in Calm     84% 0.00 in
21:00 43.2 °F 39.0 °F 30.23 in Calm     85% 0.00 in
21:01 43.2 °F 39.0 °F 30.23 in Calm     85% 0.00 in
21:06 42.9 °F 38.7 °F 30.23 in Calm     85% 0.00 in
21:11 42.6 °F 38.4 °F 30.23 in Calm     85% 0.00 in
21:16 42.4 °F 38.5 °F 30.23 in Calm     86% 0.00 in
21:21 42.3 °F 38.4 °F 30.23 in Calm     86% 0.00 in
21:26 42.2 °F 38.6 °F 30.23 in Calm     87% 0.00 in
21:31 42.2 °F 38.9 °F 30.24 in Calm     88% 0.00 in
21:36 42.2 °F 38.9 °F 30.24 in Calm     88% 0.00 in
21:41 42.1 °F 38.5 °F 30.24 in Calm     87% 0.00 in
21:46 41.9 °F 38.6 °F 30.24 in Calm     88% 0.00 in
21:51 41.7 °F 38.4 °F 30.24 in Calm     88% 0.00 in
21:56 41.5 °F 37.9 °F 30.24 in Calm     87% 0.00 in
22:01 41.2 °F 37.6 °F 30.24 in Calm     87% 0.00 in
22:06 41.1 °F 37.8 °F 30.24 in Calm     88% 0.00 in
22:11 40.9 °F 37.6 °F 30.24 in Calm     88% 0.00 in
22:16 40.7 °F 37.4 °F 30.25 in Calm     88% 0.00 in
22:21 40.6 °F 37.3 °F 30.25 in Calm     88% 0.00 in
22:26 40.4 °F 37.1 °F 30.24 in Calm     88% 0.00 in
22:31 40.3 °F 37.3 °F 30.24 in Calm     89% 0.00 in
22:36 40.2 °F 37.2 °F 30.24 in Calm     89% 0.00 in
22:41 40.2 °F 37.5 °F 30.24 in Calm     90% 0.00 in
22:46 40.1 °F 37.4 °F 30.25 in Calm     90% 0.00 in
22:51 39.9 °F 37.2 °F 30.25 in Calm     90% 0.00 in
22:56 39.6 °F 36.9 °F 30.25 in Calm     90% 0.00 in
23:01 39.6 °F 37.2 °F 30.25 in Calm     91% 0.00 in
23:06 39.7 °F 37.3 °F 30.25 in Calm     91% 0.00 in
23:11 39.6 °F 37.2 °F 30.25 in Calm     91% 0.00 in
23:16 39.4 °F 37.0 °F 30.25 in Calm     91% 0.00 in
23:21 39.1 °F 36.7 °F 30.25 in Calm     91% 0.00 in
23:26 38.9 °F 36.5 °F 30.25 in Calm     91% 0.00 in
23:31 38.7 °F 36.3 °F 30.25 in Calm     91% 0.00 in
23:37 39.0 °F 37.4 °F 30.24 in Calm     94% 0.00 in
23:42 39.5 °F 37.9 °F 30.24 in Calm     94% 0.00 in
23:46 39.8 °F 38.2 °F 30.24 in Calm     94% 0.00 in
23:52 39.9 °F 38.3 °F 30.25 in Calm     94% 0.00 in
23:57 40.1 °F 38.5 °F 30.24 in Calm     94% 0.00 in
Compliments of Weather Underground